X  Close Metar Aviation Weather Data     EIDW Dublin Airport
Temperature
12°C Temperature
10°C Dewpoint
88% Humidity



Wind
19 KM/H
12 MPH
5 M/S
10 KTS



200°
SSW
Current Conditions

Partly Cloudy Partly Cloudy
Pressure 997.92 (hPa) - 29.47 (inHg)
Visibility 6.2 (mile) - 10 (km)
Airport
Airport-code EIDW

Location: Dublin Airport
Distance: 17 (km)

Metar:
EIDW 260800Z 20010G20KT 130V260 9999 FEW014 SCT021 BKN026 12/10 Q0998 NOSIG

Time: 26-06-2022 09:00 IST